aviador You're here:

KMEI Decoded Metar

MERIDIAN/KEY FLD in MS, USA
Report Time2017-05-24 16:58:00
UTC Time2017-05-24 17:51:36
Flight Rules vfr VFR
Wind280° at 07 kt
W.Decomp.*RWY 22: 3.3 kt HW 6.2 kt RCW
RWY 01: 0.2 kt HW 7 kt LCW
W.Rank280° ranks 34
Current wind is above 280° avg. (6.7)
Visibility9999 m
Phenomena:N/A
Clouds:Few 037 Hf
Scattered 047 Hf
Broken 060 Hf
Expected CloudBase > 2,800 ft AGL from Temp-Dew spread
Ceiling6,000 ft
Temp21°C (ISA +7)
Dew Point14°C (64% RH)
AAT19.7°C
QNH1004 hPa
Density Alt1,578 ft
Elevation292 ft
Report Wrong Elevation
Raw Report
KMEI 241658Z 28007KT 10SM FEW037 SCT047 BKN060 21/14 A2965 RMK AO2
SLP037 T02110139=

Extra information for KMEI:More info

Metar Taf Metar & Taf Last 4 Metars F.Rules Stats Wind Profile Meteogram Temp Stats Airport Information Weather charts Add Link Nearby VenuesMetar ALERT Operation Metar Decoded Social comments

AIRNAV info for KMEI